createdAt,value
2018-10-05T00:00:44.625Z,98860.33
2018-10-05T00:03:14.499Z,98866.50
2018-10-05T00:05:44.185Z,98858.92
2018-10-05T00:08:13.907Z,98853.71
2018-10-05T00:10:43.775Z,98844.45
2018-10-05T00:13:13.367Z,98849.92
2018-10-05T00:15:43.001Z,98851.92
2018-10-05T00:18:12.664Z,98853.59
2018-10-05T00:20:42.816Z,98853.56
2018-10-05T00:23:12.375Z,98854.45
2018-10-05T00:25:41.967Z,98855.42
2018-10-05T00:28:52.651Z,98851.97
2018-10-05T00:31:22.768Z,98842.56
2018-10-05T00:33:53.679Z,98842.67
2018-10-05T00:36:24.094Z,98835.80
2018-10-05T00:38:53.990Z,98830.14
2018-10-05T00:41:24.253Z,98828.44
2018-10-05T00:43:53.899Z,98828.10
2018-10-05T00:46:24.838Z,98825.88
2018-10-05T00:48:55.063Z,98824.72
2018-10-05T00:51:25.531Z,98823.52
2018-10-05T00:53:56.101Z,98819.22
2018-10-05T00:56:25.771Z,98821.25
2018-10-05T00:58:55.949Z,98822.66
2018-10-05T01:01:26.016Z,98818.91
2018-10-05T01:04:00.003Z,98813.71
2018-10-05T01:06:30.199Z,98815.94
2018-10-05T01:09:00.860Z,98811.45
2018-10-05T01:11:33.614Z,98808.84
2018-10-05T01:14:04.750Z,98809.14
2018-10-05T01:16:34.805Z,98810.95
2018-10-05T01:19:04.571Z,98808.02
2018-10-05T01:21:51.760Z,98805.05
2018-10-05T01:24:21.748Z,98796.13
2018-10-05T01:26:51.469Z,98790.15
2018-10-05T01:29:24.096Z,98789.11
2018-10-05T01:31:54.152Z,98787.06
2018-10-05T01:34:24.641Z,98782.00
2018-10-05T01:36:54.551Z,98780.84
2018-10-05T01:39:26.181Z,98783.52
2018-10-05T01:41:56.043Z,98780.44
2018-10-05T01:44:28.622Z,98784.44
2018-10-05T01:46:59.902Z,98784.81
2018-10-05T01:49:29.655Z,98778.80
2018-10-05T01:51:59.674Z,98781.95
2018-10-05T01:54:29.446Z,98782.09
2018-10-05T01:56:59.844Z,98783.02
2018-10-05T01:59:29.693Z,98782.78
2018-10-05T02:02:25.655Z,98784.30
2018-10-05T02:04:55.789Z,98778.72
2018-10-05T02:07:26.304Z,98781.22
2018-10-05T02:09:58.327Z,98774.11
2018-10-05T02:12:28.211Z,98775.20
2018-10-05T02:15:13.439Z,98773.02
2018-10-05T02:17:43.232Z,98773.52
2018-10-05T02:20:13.084Z,98771.14
2018-10-05T02:22:42.579Z,98771.06
2018-10-05T02:25:12.567Z,98758.32
2018-10-05T02:27:42.507Z,98766.90
2018-10-05T02:30:15.701Z,98761.63
2018-10-05T02:32:45.274Z,98760.47
2018-10-05T02:35:14.924Z,98762.84
2018-10-05T02:37:45.929Z,98754.62
2018-10-05T02:40:15.635Z,98751.73
2018-10-05T02:42:45.157Z,98749.64
2018-10-05T02:45:14.772Z,98746.19
2018-10-05T02:47:44.707Z,98747.25
2018-10-05T02:50:15.826Z,98746.13
2018-10-05T02:52:46.593Z,98746.16
2018-10-05T02:55:16.444Z,98750.26
2018-10-05T02:57:46.504Z,98750.26
2018-10-05T03:00:28.934Z,98753.84
2018-10-05T03:02:58.706Z,98749.51
2018-10-05T03:05:28.261Z,98747.55
2018-10-05T03:08:00.435Z,98742.91
2018-10-05T03:10:30.798Z,98735.22
2018-10-05T03:13:00.390Z,98744.24
2018-10-05T03:15:29.886Z,98740.08
2018-10-05T03:17:59.517Z,98737.48
2018-10-05T03:20:30.003Z,98732.76
2018-10-05T03:22:59.773Z,98733.03
2018-10-05T03:25:31.889Z,98731.73
2018-10-05T03:28:01.971Z,98724.62
2018-10-05T03:30:33.367Z,98722.85
2018-10-05T03:33:03.986Z,98728.08
2018-10-05T03:35:33.837Z,98721.89
2018-10-05T03:38:07.769Z,98722.44
2018-10-05T03:40:37.300Z,98723.16
2018-10-05T03:43:08.480Z,98715.98
2018-10-05T03:45:38.180Z,98718.58
2018-10-05T03:48:25.340Z,98714.88
2018-10-05T03:50:54.806Z,98714.51
2018-10-05T03:53:24.593Z,98721.00
2018-10-05T03:55:54.158Z,98707.20
2018-10-05T03:58:23.983Z,98711.91
2018-10-05T04:00:55.679Z,98714.67
2018-10-05T04:03:30.299Z,98712.63
2018-10-05T04:06:01.039Z,98709.14
2018-10-05T04:08:31.149Z,98706.03
2018-10-05T04:11:01.068Z,98705.42
2018-10-05T04:13:32.329Z,98697.46
2018-10-05T04:16:03.554Z,98701.77
2018-10-05T04:18:36.013Z,98703.16
2018-10-05T04:21:12.781Z,98704.70
2018-10-05T04:23:42.929Z,98697.05
2018-10-05T04:26:24.988Z,98696.09
2018-10-05T04:28:55.310Z,98695.38
2018-10-05T04:31:25.076Z,98690.28
2018-10-05T04:33:59.773Z,98695.06
2018-10-05T04:36:31.550Z,98696.46
2018-10-05T04:39:01.202Z,98705.14
2018-10-05T04:41:32.996Z,98708.69
2018-10-05T04:44:02.450Z,98705.23
2018-10-05T04:46:32.133Z,98703.56
2018-10-05T04:49:01.982Z,98698.37
2018-10-05T04:51:34.048Z,98692.02
2018-10-05T04:54:03.715Z,98689.91
2018-10-05T04:56:33.367Z,98684.68
2018-10-05T04:59:03.990Z,98678.88
2018-10-05T05:01:33.813Z,98680.79
2018-10-05T05:04:05.038Z,98681.20
2018-10-05T05:06:35.788Z,98684.82
2018-10-05T05:09:06.916Z,98683.35
2018-10-05T05:12:05.308Z,98681.03
2018-10-05T05:14:34.995Z,98681.09
2018-10-05T05:17:05.605Z,98676.38
2018-10-05T05:19:37.760Z,98671.64
2018-10-05T05:22:36.811Z,98676.28
2018-10-05T05:25:06.477Z,98671.84
2018-10-05T05:27:38.341Z,98671.09
2018-10-05T05:30:32.823Z,98675.05
2018-10-05T05:33:02.708Z,98676.80
2018-10-05T05:35:33.628Z,98683.59
2018-10-05T05:38:04.100Z,98683.59
2018-10-05T05:40:33.705Z,98684.66
2018-10-05T05:43:03.641Z,98683.94
2018-10-05T05:45:36.862Z,98684.89
2018-10-05T05:48:07.710Z,98678.50
2018-10-05T05:50:52.027Z,98678.09
2018-10-05T05:53:22.107Z,98684.07
2018-10-05T05:56:08.011Z,98691.38
2018-10-05T05:58:37.621Z,98693.36
2018-10-05T06:01:08.457Z,98691.86
2018-10-05T06:03:49.062Z,98690.46
2018-10-05T06:06:20.567Z,98690.36
2018-10-05T06:08:50.334Z,98694.70
2018-10-05T06:11:20.422Z,98692.95
2018-10-05T06:13:50.380Z,98686.70
2018-10-05T06:16:20.239Z,98690.94
2018-10-05T06:18:49.897Z,98673.20
2018-10-05T06:21:19.880Z,98689.70
2018-10-05T06:23:49.463Z,98691.30
2018-10-05T06:26:19.099Z,98689.98
2018-10-05T06:28:49.038Z,98695.05
2018-10-05T06:31:18.868Z,98687.03
2018-10-05T06:33:49.071Z,98689.56
2018-10-05T06:36:18.783Z,98692.78
2018-10-05T06:38:48.582Z,98693.01
2018-10-05T06:41:19.005Z,98694.72
2018-10-05T06:43:55.385Z,98696.57
2018-10-05T06:46:25.202Z,98695.81
2018-10-05T06:52:16.950Z,98693.45
2018-10-05T06:54:48.309Z,98699.33
2018-10-05T06:59:57.445Z,98694.53
2018-10-05T07:02:33.473Z,98692.34
2018-10-05T07:05:07.599Z,98693.02
2018-10-05T07:07:44.556Z,98693.89
2018-10-05T07:10:14.191Z,98688.47
2018-10-05T07:12:45.879Z,98693.94
2018-10-05T07:15:17.136Z,98696.34
2018-10-05T07:17:47.730Z,98690.86
2018-10-05T07:20:32.257Z,98689.97
2018-10-05T07:23:02.615Z,98691.85
2018-10-05T07:28:29.804Z,98687.97
2018-10-05T07:31:10.253Z,98691.94
2018-10-05T07:33:43.014Z,98688.91
2018-10-05T07:36:18.784Z,98695.16
2018-10-05T07:38:52.542Z,98693.77
2018-10-05T07:41:22.304Z,98684.33
2018-10-05T07:43:52.643Z,98680.95
2018-10-05T07:46:22.505Z,98672.56
2018-10-05T07:48:57.033Z,98682.92
2018-10-05T07:51:26.884Z,98688.00
2018-10-05T07:53:58.016Z,98674.05
2018-10-05T07:56:27.863Z,98677.02
2018-10-05T07:59:04.114Z,98682.18
2018-10-05T08:01:33.893Z,98681.81
2018-10-05T08:04:03.731Z,98674.48
2018-10-05T08:06:33.685Z,98667.64
2018-10-05T08:09:07.509Z,98680.98
2018-10-05T08:11:37.709Z,98686.16
2018-10-05T08:14:07.364Z,98683.30
2018-10-05T08:16:40.555Z,98680.09
2018-10-05T08:19:11.476Z,98684.50
2018-10-05T08:25:12.464Z,98683.88
2018-10-05T08:27:42.615Z,98680.51
2018-10-05T08:30:12.342Z,98682.57
2018-10-05T08:32:42.133Z,98677.50
2018-10-05T08:37:55.397Z,98673.48
2018-10-05T08:40:26.488Z,98679.20
2018-10-05T08:56:58.946Z,98673.92
2018-10-05T08:59:41.239Z,98669.03
2018-10-05T09:02:11.594Z,98671.22
2018-10-05T09:04:51.547Z,98664.03
2018-10-05T09:07:21.599Z,98662.27
2018-10-05T09:09:53.492Z,98657.28
2018-10-05T09:12:23.746Z,98657.08
2018-10-05T09:14:54.428Z,98656.34
2018-10-05T09:17:24.447Z,98652.90
2018-10-05T09:19:54.296Z,98648.48
2018-10-05T09:22:25.540Z,98637.10
2018-10-05T09:24:55.859Z,98646.94
2018-10-05T09:27:25.690Z,98643.80
2018-10-05T09:29:55.891Z,98640.06
2018-10-05T09:32:26.029Z,98636.38
2018-10-05T09:34:56.144Z,98628.02
2018-10-05T09:37:26.120Z,98627.47
2018-10-05T09:39:55.949Z,98626.80
2018-10-05T09:42:29.261Z,98617.02
2018-10-05T09:45:02.978Z,98620.55
2018-10-05T09:47:33.570Z,98615.50
2018-10-05T09:50:03.240Z,98609.47
2018-10-05T09:52:32.975Z,98592.81
2018-10-05T09:55:02.737Z,98596.38
2018-10-05T09:57:34.888Z,98587.78
2018-10-05T10:00:05.076Z,98588.02
2018-10-05T10:02:44.011Z,98579.87
2018-10-05T10:05:16.243Z,98579.66
2018-10-05T10:07:46.498Z,98569.56
2018-10-05T10:10:18.482Z,98573.08
2018-10-05T10:12:48.531Z,98564.33
2018-10-05T10:15:18.216Z,98566.52
2018-10-05T10:17:48.229Z,98562.61
2018-10-05T10:20:19.424Z,98560.64
2018-10-05T10:22:50.429Z,98559.43
2018-10-05T10:25:21.354Z,98550.81
2018-10-05T10:27:53.125Z,98554.66
2018-10-05T10:30:27.885Z,98545.22
2018-10-05T10:33:00.727Z,98553.48
2018-10-05T10:35:38.989Z,98551.22
2018-10-05T10:38:09.103Z,98543.53
2018-10-05T10:40:40.146Z,98541.52
2018-10-05T10:46:11.204Z,98528.91
2018-10-05T10:48:58.757Z,98538.11
2018-10-05T11:07:04.138Z,98498.59
2018-10-05T11:09:47.108Z,98493.90
2018-10-05T11:12:17.929Z,98491.48
2018-10-05T11:14:58.538Z,98490.78
2018-10-05T11:17:28.546Z,98482.50
2018-10-05T11:19:58.478Z,98472.70
2018-10-05T11:22:28.106Z,98469.59
2018-10-05T11:25:03.530Z,98463.49
2018-10-05T11:27:33.266Z,98453.67
2018-10-05T11:30:03.045Z,98450.70
2018-10-05T11:32:32.834Z,98447.56
2018-10-05T11:35:07.856Z,98440.77
2018-10-05T11:37:37.470Z,98441.25
2018-10-05T11:40:07.647Z,98437.84
2018-10-05T11:42:37.742Z,98438.13
2018-10-05T11:45:12.609Z,98437.03
2018-10-05T11:47:42.579Z,98428.55
2018-10-05T11:50:12.465Z,98426.77
2018-10-05T11:52:42.636Z,98435.58
2018-10-05T11:55:12.489Z,98425.14
2018-10-05T11:57:42.742Z,98430.16
2018-10-05T12:00:12.551Z,98425.01
2018-10-05T12:02:42.592Z,98421.02
2018-10-05T12:05:16.708Z,98414.42
2018-10-05T12:07:46.382Z,98405.84
2018-10-05T12:10:19.518Z,98404.00
2018-10-05T12:12:49.382Z,98404.97
2018-10-05T12:15:18.963Z,98401.51
2018-10-05T12:17:49.981Z,98393.94
2018-10-05T12:20:19.641Z,98393.84
2018-10-05T12:22:52.182Z,98398.58
2018-10-05T12:25:21.946Z,98398.05
2018-10-05T12:27:52.668Z,98399.13
2018-10-05T12:30:22.233Z,98398.53
2018-10-05T12:32:53.237Z,98394.14
2018-10-05T12:35:22.916Z,98399.11
2018-10-05T12:37:52.927Z,98396.77
2018-10-05T12:40:22.489Z,98396.56
2018-10-05T12:42:52.502Z,98387.61
2018-10-05T12:45:22.553Z,98394.01
2018-10-05T12:47:52.640Z,98388.21
2018-10-05T12:50:24.617Z,98384.05
2018-10-05T12:52:55.586Z,98378.18
2018-10-05T12:55:26.564Z,98374.02
2018-10-05T12:57:56.362Z,98378.38
2018-10-05T13:00:26.239Z,98377.18
2018-10-05T13:06:06.691Z,98361.33
2018-10-05T13:08:37.712Z,98365.99
2018-10-05T13:11:09.900Z,98362.23
2018-10-05T13:13:40.164Z,98371.36
2018-10-05T13:16:09.982Z,98361.12
2018-10-05T13:18:39.789Z,98360.64
2018-10-05T13:21:09.295Z,98355.80
2018-10-05T13:23:38.795Z,98358.70
2018-10-05T13:26:09.334Z,98356.02
2018-10-05T13:28:39.296Z,98342.86
2018-10-05T13:31:10.374Z,98349.09
2018-10-05T13:33:40.164Z,98347.81
2018-10-05T13:36:10.913Z,98346.51
2018-10-05T13:38:42.088Z,98342.86
2018-10-05T13:41:12.215Z,98338.84
2018-10-05T13:43:47.230Z,98336.99
2018-10-05T13:46:17.943Z,98338.83
2018-10-05T13:48:50.221Z,98333.50
2018-10-05T13:51:20.084Z,98332.16
2018-10-05T13:56:46.716Z,98322.58
2018-10-05T13:59:17.212Z,98329.70
2018-10-05T14:01:49.076Z,98325.47
2018-10-05T14:04:24.259Z,98330.13
2018-10-05T14:06:55.316Z,98333.67
2018-10-05T14:09:26.175Z,98324.97
2018-10-05T14:11:55.906Z,98330.44
2018-10-05T14:14:25.394Z,98320.22
2018-10-05T14:16:56.836Z,98312.48
2018-10-05T14:19:26.465Z,98312.89
2018-10-05T14:21:56.163Z,98320.81
2018-10-05T14:24:25.697Z,98316.95
2018-10-05T14:27:02.211Z,98312.83
2018-10-05T14:29:31.918Z,98311.25
2018-10-05T14:32:01.790Z,98299.44
2018-10-05T14:34:31.754Z,98298.20
2018-10-05T14:37:01.448Z,98289.80
2018-10-05T14:39:32.025Z,98279.58
2018-10-05T14:42:02.220Z,98288.19
2018-10-05T14:44:34.275Z,98285.14
2018-10-05T14:47:04.330Z,98290.00
2018-10-05T14:49:34.802Z,98301.18
2018-10-05T14:52:05.403Z,98302.16
2018-10-05T14:54:35.920Z,98303.26
2018-10-05T14:57:05.772Z,98304.23
2018-10-05T14:59:35.380Z,98300.38
2018-10-05T15:02:05.230Z,98308.11
2018-10-05T15:04:36.430Z,98297.99
2018-10-05T15:07:06.273Z,98304.80
2018-10-05T15:09:36.358Z,98302.78
2018-10-05T15:12:06.123Z,98296.50
2018-10-05T15:14:35.696Z,98294.87
2018-10-05T15:17:07.606Z,98289.63
2018-10-05T15:19:37.704Z,98279.60
2018-10-05T15:22:07.507Z,98279.55
2018-10-05T15:24:37.162Z,98273.32
2018-10-05T15:27:07.599Z,98260.14
2018-10-05T15:29:38.680Z,98262.58
2018-10-05T15:32:08.397Z,98249.69
2018-10-05T15:34:37.988Z,98247.59
2018-10-05T15:37:07.879Z,98244.80
2018-10-05T15:39:37.547Z,98231.83
2018-10-05T15:42:07.539Z,98238.41
2018-10-05T15:44:37.173Z,98225.69
2018-10-05T15:47:09.104Z,98232.53
2018-10-05T15:49:39.858Z,98225.69
2018-10-05T15:52:09.541Z,98224.23
2018-10-05T15:54:39.103Z,98213.08
2018-10-05T15:57:09.609Z,98204.42
2018-10-05T15:59:41.885Z,98208.16
2018-10-05T16:02:11.975Z,98207.21
2018-10-05T16:04:42.418Z,98196.35
2018-10-05T16:07:12.689Z,98196.58
2018-10-05T16:09:43.512Z,98195.34
2018-10-05T16:12:17.710Z,98192.52
2018-10-05T16:14:47.572Z,98190.30
2018-10-05T16:17:17.567Z,98186.02
2018-10-05T16:22:36.757Z,98186.04
2018-10-05T16:25:25.782Z,98184.97
2018-10-05T16:27:55.495Z,98181.36
2018-10-05T16:30:26.435Z,98184.16
2018-10-05T16:32:57.982Z,98182.15
2018-10-05T16:35:28.523Z,98183.75
2018-10-05T16:37:59.253Z,98178.30
2018-10-05T16:40:28.858Z,98181.77
2018-10-05T16:43:01.070Z,98179.87
2018-10-05T16:45:30.614Z,98174.98
2018-10-05T16:48:00.480Z,98178.45
2018-10-05T16:50:31.816Z,98187.25
2018-10-05T16:53:03.857Z,98181.14
2018-10-05T16:55:33.423Z,98181.41
2018-10-05T16:58:03.053Z,98182.91
2018-10-05T17:00:32.781Z,98182.31
2018-10-05T17:03:03.065Z,98175.70
2018-10-05T17:05:33.018Z,98179.13
2018-10-05T17:08:02.643Z,98174.00
2018-10-05T17:10:32.483Z,98168.32
2018-10-05T17:13:02.226Z,98166.94
2018-10-05T17:15:31.935Z,98167.84
2018-10-05T17:18:02.150Z,98163.59
2018-10-05T17:20:32.576Z,98157.64
2018-10-05T17:23:02.580Z,98163.91
2018-10-05T17:25:32.414Z,98159.83
2018-10-05T17:28:02.676Z,98160.92
2018-10-05T17:30:32.370Z,98164.69
2018-10-05T17:33:02.127Z,98165.66
2018-10-05T17:35:31.908Z,98160.88
2018-10-05T17:38:01.858Z,98164.02
2018-10-05T17:40:31.349Z,98160.20
2018-10-05T17:43:01.417Z,98162.16
2018-10-05T17:45:35.943Z,98162.65
2018-10-05T17:48:05.514Z,98162.19
2018-10-05T17:50:35.575Z,98162.55
2018-10-05T17:53:05.478Z,98166.28
2018-10-05T17:55:36.510Z,98165.91
2018-10-05T17:58:07.588Z,98166.04
2018-10-05T18:00:40.701Z,98172.75
2018-10-05T18:03:10.443Z,98167.47
2018-10-05T18:05:41.072Z,98168.88
2018-10-05T18:08:11.084Z,98167.70
2018-10-05T18:10:47.761Z,98166.25
2018-10-05T18:13:23.205Z,98161.12
2018-10-05T18:15:53.391Z,98165.54
2018-10-05T18:18:37.121Z,98169.95
2018-10-05T18:21:06.873Z,98170.42
2018-10-05T18:23:36.333Z,98166.94
2018-10-05T18:26:41.420Z,98160.72
2018-10-05T18:29:12.511Z,98158.79
2018-10-05T18:34:52.023Z,98150.38
2018-10-05T18:37:23.429Z,98160.66
2018-10-05T18:39:54.077Z,98159.92
2018-10-05T18:42:23.633Z,98158.01
2018-10-05T18:44:53.654Z,98153.58
2018-10-05T18:47:23.260Z,98145.67
2018-10-05T18:49:57.178Z,98154.29
2018-10-05T18:52:27.468Z,98156.30
2018-10-05T18:54:58.016Z,98154.89
2018-10-05T18:57:27.841Z,98156.83
2018-10-05T18:59:57.806Z,98149.00
2018-10-05T19:02:27.576Z,98161.68
2018-10-05T19:04:57.273Z,98168.33
2018-10-05T19:07:26.908Z,98158.63
2018-10-05T19:09:57.111Z,98163.61
2018-10-05T19:12:30.639Z,98154.98
2018-10-05T19:15:02.505Z,98152.70
2018-10-05T19:17:32.245Z,98153.42
2018-10-05T19:20:03.708Z,98149.44
2018-10-05T19:22:33.926Z,98151.88
2018-10-05T19:25:03.676Z,98147.13
2018-10-05T19:27:33.396Z,98145.16
2018-10-05T19:30:03.340Z,98148.09
2018-10-05T19:32:46.319Z,98148.87
2018-10-05T19:35:15.918Z,98150.06
2018-10-05T19:37:45.670Z,98148.49
2018-10-05T19:40:15.444Z,98146.42
2018-10-05T19:42:45.737Z,98143.00
2018-10-05T19:45:15.723Z,98151.00
2018-10-05T19:47:45.531Z,98146.91
2018-10-05T19:50:15.195Z,98145.34
2018-10-05T19:52:45.166Z,98141.94
2018-10-05T19:55:14.860Z,98143.69
2018-10-05T19:57:50.086Z,98140.72
2018-10-05T20:00:19.841Z,98133.65
2018-10-05T20:02:49.507Z,98132.86
2018-10-05T20:05:26.179Z,98133.45
2018-10-05T20:08:12.342Z,98135.44
2018-10-05T20:10:42.246Z,98134.67
2018-10-05T20:13:11.890Z,98132.77
2018-10-05T20:15:41.612Z,98132.68
2018-10-05T20:18:11.390Z,98125.61
2018-10-05T20:20:41.034Z,98124.85
2018-10-05T20:29:14.677Z,98126.06
2018-10-05T20:32:00.279Z,98130.12
2018-10-05T20:37:25.295Z,98132.48
2018-10-05T20:48:37.182Z,98144.12
2018-10-05T20:53:57.001Z,98147.23
2018-10-05T21:01:59.760Z,98150.56
2018-10-05T21:04:40.096Z,98147.85
2018-10-05T21:07:13.764Z,98149.05
2018-10-05T21:09:48.747Z,98152.05
2018-10-05T21:12:20.249Z,98147.50
2018-10-05T21:17:41.578Z,98141.35
2018-10-05T21:23:07.852Z,98142.25
2018-10-05T21:25:38.966Z,98133.72
2018-10-05T21:28:20.173Z,98140.36
2018-10-05T21:30:50.297Z,98141.23
2018-10-05T21:33:20.524Z,98134.25
2018-10-05T21:35:53.415Z,98128.80
2018-10-05T21:40:42.554Z,98128.24
2018-10-05T21:43:12.580Z,98124.19
2018-10-05T21:45:42.352Z,98125.24
2018-10-05T21:48:12.225Z,98126.30
2018-10-05T21:50:44.220Z,98120.31
2018-10-05T21:53:14.909Z,98120.72
2018-10-05T21:55:45.546Z,98120.12
2018-10-05T21:58:15.801Z,98119.20
2018-10-05T22:00:45.850Z,98119.20
2018-10-05T22:03:15.645Z,98113.65
2018-10-05T22:05:45.284Z,98110.77
2018-10-05T22:08:14.870Z,98116.38
2018-10-05T22:10:44.484Z,98106.38
2018-10-05T22:13:14.175Z,98113.27
2018-10-05T22:15:43.798Z,98109.63
2018-10-05T22:18:13.909Z,98102.70
2018-10-05T22:20:43.826Z,98096.13
2018-10-05T22:23:13.902Z,98096.67
2018-10-05T22:25:43.681Z,98098.07
2018-10-05T22:28:13.370Z,98097.02
2018-10-05T22:30:42.921Z,98087.13
2018-10-05T22:33:12.489Z,98086.07
2018-10-05T22:35:42.103Z,98085.55
2018-10-05T22:38:12.243Z,98087.33
2018-10-05T22:43:55.463Z,98089.95
2018-10-05T22:46:25.850Z,98083.56
2018-10-05T22:48:56.630Z,98078.41
2018-10-05T22:51:27.356Z,98083.98
2018-10-05T22:53:58.196Z,98079.67
2018-10-05T22:56:28.140Z,98079.00
2018-10-05T22:58:58.241Z,98077.89
2018-10-05T23:01:29.267Z,98080.20
2018-10-05T23:03:59.708Z,98077.28
2018-10-05T23:06:29.486Z,98071.93
2018-10-05T23:09:05.833Z,98071.50
2018-10-05T23:11:35.758Z,98071.99
2018-10-05T23:14:05.859Z,98074.78
2018-10-05T23:16:35.563Z,98073.35
2018-10-05T23:19:05.610Z,98073.27
2018-10-05T23:21:35.319Z,98077.63
2018-10-05T23:24:06.262Z,98076.25
2018-10-05T23:26:36.017Z,98080.39
2018-10-05T23:29:05.728Z,98080.13
2018-10-05T23:31:35.262Z,98084.76
2018-10-05T23:34:05.177Z,98079.98
2018-10-05T23:36:34.842Z,98078.09
2018-10-05T23:39:05.274Z,98082.03
2018-10-05T23:41:34.894Z,98081.39
2018-10-05T23:44:10.674Z,98084.69
2018-10-05T23:46:40.302Z,98076.47
2018-10-05T23:49:10.055Z,98078.04
2018-10-05T23:51:39.802Z,98078.91
2018-10-05T23:54:10.802Z,98072.82
2018-10-05T23:56:40.475Z,98071.49
2018-10-05T23:59:10.295Z,98073.53
